sensor_id;sensor_type;location;lat;lon;timestamp;pressure;altitude;pressure_sealevel;temperature;humidity
6393;BME280;3229;42.674;23.282;2024-03-22T00:02:12;94641.41;;;11.85;40.00
6393;BME280;3229;42.674;23.282;2024-03-22T00:04:39;94656.16;;;11.91;40.22
6393;BME280;3229;42.674;23.282;2024-03-22T00:07:06;94652.16;;;11.88;40.23
6393;BME280;3229;42.674;23.282;2024-03-22T00:09:31;94649.72;;;11.87;40.24
6393;BME280;3229;42.674;23.282;2024-03-22T00:11:59;94647.47;;;11.84;40.21
6393;BME280;3229;42.674;23.282;2024-03-22T00:14:25;94657.81;;;11.82;40.40
6393;BME280;3229;42.674;23.282;2024-03-22T00:16:51;94657.19;;;11.80;40.37
6393;BME280;3229;42.674;23.282;2024-03-22T00:19:17;94653.13;;;11.77;40.32
6393;BME280;3229;42.674;23.282;2024-03-22T00:21:45;94659.38;;;11.75;40.60
6393;BME280;3229;42.674;23.282;2024-03-22T00:24:11;94654.81;;;11.69;40.48
6393;BME280;3229;42.674;23.282;2024-03-22T00:26:38;94625.81;;;11.50;40.38
6393;BME280;3229;42.674;23.282;2024-03-22T00:29:04;94658.50;;;11.66;40.53
6393;BME280;3229;42.674;23.282;2024-03-22T00:31:31;94644.66;;;11.59;40.63
6393;BME280;3229;42.674;23.282;2024-03-22T00:33:57;94653.81;;;11.62;40.63
6393;BME280;3229;42.674;23.282;2024-03-22T00:36:23;94658.41;;;11.58;40.82
6393;BME280;3229;42.674;23.282;2024-03-22T00:38:51;94660.28;;;11.56;40.84
6393;BME280;3229;42.674;23.282;2024-03-22T00:41:17;94664.75;;;11.54;40.90
6393;BME280;3229;42.674;23.282;2024-03-22T00:43:43;94671.94;;;11.50;40.99
6393;BME280;3229;42.674;23.282;2024-03-22T00:46:10;94668.69;;;11.48;41.00
6393;BME280;3229;42.674;23.282;2024-03-22T00:48:35;94672.34;;;11.46;41.17
6393;BME280;3229;42.674;23.282;2024-03-22T00:51:03;94656.75;;;11.39;41.19
6393;BME280;3229;42.674;23.282;2024-03-22T00:53:30;94665.22;;;11.40;41.19
6393;BME280;3229;42.674;23.282;2024-03-22T00:55:57;94667.16;;;11.38;41.22
6393;BME280;3229;42.674;23.282;2024-03-22T00:58:26;94669.97;;;11.35;41.47
6393;BME280;3229;42.674;23.282;2024-03-22T01:00:51;94655.19;;;11.28;41.45
6393;BME280;3229;42.674;23.282;2024-03-22T01:03:18;94656.97;;;11.28;41.49
6393;BME280;3229;42.674;23.282;2024-03-22T01:05:44;94669.09;;;11.26;41.71
6393;BME280;3229;42.674;23.282;2024-03-22T01:08:11;94667.75;;;11.22;41.79
6393;BME280;3229;42.674;23.282;2024-03-22T01:10:37;94665.50;;;11.19;41.51
6393;BME280;3229;42.674;23.282;2024-03-22T01:13:05;94669.66;;;11.20;41.76
6393;BME280;3229;42.674;23.282;2024-03-22T01:15:31;94673.28;;;11.17;41.75
6393;BME280;3229;42.674;23.282;2024-03-22T01:17:58;94668.47;;;11.14;41.90
6393;BME280;3229;42.674;23.282;2024-03-22T01:20:24;94670.38;;;11.12;41.84
6393;BME280;3229;42.674;23.282;2024-03-22T01:22:50;94670.63;;;11.09;41.82
6393;BME280;3229;42.674;23.282;2024-03-22T01:25:16;94674.16;;;11.08;41.92
6393;BME280;3229;42.674;23.282;2024-03-22T01:27:43;94666.75;;;11.05;42.07
6393;BME280;3229;42.674;23.282;2024-03-22T01:30:11;94659.00;;;10.97;41.94
6393;BME280;3229;42.674;23.282;2024-03-22T01:32:37;94669.72;;;11.00;42.12
6393;BME280;3229;42.674;23.282;2024-03-22T01:35:04;94658.47;;;10.93;41.94
6393;BME280;3229;42.674;23.282;2024-03-22T01:37:31;94655.91;;;10.93;42.19
6393;BME280;3229;42.674;23.282;2024-03-22T01:39:56;94662.63;;;10.94;42.10
6393;BME280;3229;42.674;23.282;2024-03-22T01:42:23;94661.94;;;10.92;42.21
6393;BME280;3229;42.674;23.282;2024-03-22T01:44:49;94659.53;;;10.91;42.16
6393;BME280;3229;42.674;23.282;2024-03-22T01:47:17;94650.69;;;10.85;42.23
6393;BME280;3229;42.674;23.282;2024-03-22T01:49:43;94652.56;;;10.83;42.17
6393;BME280;3229;42.674;23.282;2024-03-22T01:52:10;94662.53;;;10.86;42.06
6393;BME280;3229;42.674;23.282;2024-03-22T01:54:36;94659.16;;;10.86;42.06
6393;BME280;3229;42.674;23.282;2024-03-22T01:57:02;94661.03;;;10.84;42.23
6393;BME280;3229;42.674;23.282;2024-03-22T01:59:30;94659.44;;;10.83;42.25
6393;BME280;3229;42.674;23.282;2024-03-22T02:01:57;94648.53;;;10.80;42.41
6393;BME280;3229;42.674;23.282;2024-03-22T02:04:24;94632.72;;;10.67;42.34
6393;BME280;3229;42.674;23.282;2024-03-22T02:06:51;94654.75;;;10.78;42.22
6393;BME280;3229;42.674;23.282;2024-03-22T02:09:17;94651.94;;;10.71;42.45
6393;BME280;3229;42.674;23.282;2024-03-22T02:11:46;94649.50;;;10.70;42.49
6393;BME280;3229;42.674;23.282;2024-03-22T02:14:12;94657.72;;;10.73;42.39
6393;BME280;3229;42.674;23.282;2024-03-22T02:16:39;94620.22;;;10.54;42.55
6393;BME280;3229;42.674;23.282;2024-03-22T02:19:05;94651.25;;;10.69;42.54
6393;BME280;3229;42.674;23.282;2024-03-22T02:21:33;94632.22;;;10.54;42.51
6393;BME280;3229;42.674;23.282;2024-03-22T02:24:01;94651.53;;;10.66;42.65
6393;BME280;3229;42.674;23.282;2024-03-22T02:26:27;94645.66;;;10.56;42.69
6393;BME280;3229;42.674;23.282;2024-03-22T02:28:53;94645.13;;;10.52;42.75
6393;BME280;3229;42.674;23.282;2024-03-22T02:31:20;94631.72;;;10.41;42.74
6393;BME280;3229;42.674;23.282;2024-03-22T02:33:45;94661.53;;;10.60;42.87
6393;BME280;3229;42.674;23.282;2024-03-22T02:36:12;94657.91;;;10.52;42.74
6393;BME280;3229;42.674;23.282;2024-03-22T02:38:38;94666.91;;;10.57;42.93
6393;BME280;3229;42.674;23.282;2024-03-22T02:41:06;94665.72;;;10.51;42.93
6393;BME280;3229;42.674;23.282;2024-03-22T02:43:32;94672.44;;;10.52;43.04
6393;BME280;3229;42.674;23.282;2024-03-22T02:45:58;94671.63;;;10.51;43.06
6393;BME280;3229;42.674;23.282;2024-03-22T02:48:24;94673.38;;;10.51;43.03
6393;BME280;3229;42.674;23.282;2024-03-22T02:50:55;94663.31;;;10.40;43.06
6393;BME280;3229;42.674;23.282;2024-03-22T02:53:20;94677.00;;;10.48;43.07
6393;BME280;3229;42.674;23.282;2024-03-22T02:55:47;94674.59;;;10.47;43.32
6393;BME280;3229;42.674;23.282;2024-03-22T02:58:14;94663.88;;;10.34;43.31
6393;BME280;3229;42.674;23.282;2024-03-22T03:00:41;94685.09;;;10.44;43.21
6393;BME280;3229;42.674;23.282;2024-03-22T03:03:07;94691.16;;;10.43;43.38
6393;BME280;3229;42.674;23.282;2024-03-22T03:05:34;94671.13;;;10.28;43.47
6393;BME280;3229;42.674;23.282;2024-03-22T03:08:00;94693.06;;;10.41;43.44
6393;BME280;3229;42.674;23.282;2024-03-22T03:10:27;94694.13;;;10.38;43.53
6393;BME280;3229;42.674;23.282;2024-03-22T03:12:54;94696.00;;;10.36;43.58
6393;BME280;3229;42.674;23.282;2024-03-22T03:15:22;94695.19;;;10.36;43.71
6393;BME280;3229;42.674;23.282;2024-03-22T03:17:48;94684.03;;;10.27;43.77
6393;BME280;3229;42.674;23.282;2024-03-22T03:20:15;94699.78;;;10.32;43.80
6393;BME280;3229;42.674;23.282;2024-03-22T03:22:41;94696.69;;;10.28;43.85
6393;BME280;3229;42.674;23.282;2024-03-22T03:25:09;94666.00;;;10.09;43.88
6393;BME280;3229;42.674;23.282;2024-03-22T03:27:34;94698.72;;;10.25;43.92
6393;BME280;3229;42.674;23.282;2024-03-22T03:30:02;94700.56;;;10.23;43.91
6393;BME280;3229;42.674;23.282;2024-03-22T03:32:29;94709.06;;;10.23;43.94
6393;BME280;3229;42.674;23.282;2024-03-22T03:34:56;94709.06;;;10.23;44.08
6393;BME280;3229;42.674;23.282;2024-03-22T03:37:22;94700.56;;;10.23;44.14
6393;BME280;3229;42.674;23.282;2024-03-22T03:39:49;94707.81;;;10.18;44.19
6393;BME280;3229;42.674;23.282;2024-03-22T03:42:14;94706.75;;;10.20;44.19
6393;BME280;3229;42.674;23.282;2024-03-22T03:44:41;94707.72;;;10.19;44.41
6393;BME280;3229;42.674;23.282;2024-03-22T03:47:07;94715.50;;;10.18;44.29
6393;BME280;3229;42.674;23.282;2024-03-22T03:49:35;94720.59;;;10.18;44.26
6393;BME280;3229;42.674;23.282;2024-03-22T03:52:01;94717.66;;;10.13;44.28
6393;BME280;3229;42.674;23.282;2024-03-22T03:54:28;94729.34;;;10.15;44.29
6393;BME280;3229;42.674;23.282;2024-03-22T03:56:54;94739.56;;;10.15;44.75
6393;BME280;3229;42.674;23.282;2024-03-22T03:59:20;94729.63;;;10.12;44.42
6393;BME280;3229;42.674;23.282;2024-03-22T04:01:46;94736.47;;;10.12;44.55
6393;BME280;3229;42.674;23.282;2024-03-22T04:04:13;94731.63;;;10.09;44.58
6393;BME280;3229;42.674;23.282;2024-03-22T04:06:40;94730.53;;;10.01;44.54
6393;BME280;3229;42.674;23.282;2024-03-22T04:09:07;94739.69;;;10.04;44.63
6393;BME280;3229;42.674;23.282;2024-03-22T04:11:32;94740.50;;;10.04;44.51
6393;BME280;3229;42.674;23.282;2024-03-22T04:13:59;94734.31;;;9.97;44.65
6393;BME280;3229;42.674;23.282;2024-03-22T04:16:25;94726.38;;;9.91;44.62
6393;BME280;3229;42.674;23.282;2024-03-22T04:18:53;94738.34;;;10.00;44.42
6393;BME280;3229;42.674;23.282;2024-03-22T04:21:18;94729.72;;;9.91;44.63
6393;BME280;3229;42.674;23.282;2024-03-22T04:23:46;94742.50;;;10.01;44.75
6393;BME280;3229;42.674;23.282;2024-03-22T04:26:12;94747.75;;;9.99;44.73
6393;BME280;3229;42.674;23.282;2024-03-22T04:28:39;94744.41;;;9.99;44.91
6393;BME280;3229;42.674;23.282;2024-03-22T04:31:07;94747.75;;;9.99;44.96
6393;BME280;3229;42.674;23.282;2024-03-22T04:33:34;94745.19;;;9.99;44.87
6393;BME280;3229;42.674;23.282;2024-03-22T04:36:01;94754.47;;;10.00;45.08
6393;BME280;3229;42.674;23.282;2024-03-22T04:38:28;94755.28;;;10.01;45.02
6393;BME280;3229;42.674;23.282;2024-03-22T04:40:57;94745.47;;;9.96;45.10
6393;BME280;3229;42.674;23.282;2024-03-22T04:43:23;94768.59;;;10.04;45.10
6393;BME280;3229;42.674;23.282;2024-03-22T04:45:51;94762.44;;;10.07;45.08
6393;BME280;3229;42.674;23.282;2024-03-22T04:48:18;94771.56;;;10.10;45.17
6393;BME280;3229;42.674;23.282;2024-03-22T04:50:45;94768.09;;;10.11;45.07
6393;BME280;3229;42.674;23.282;2024-03-22T04:53:13;94720.59;;;9.89;45.05
6393;BME280;3229;42.674;23.282;2024-03-22T04:55:38;94765.53;;;10.20;45.08
6393;BME280;3229;42.674;23.282;2024-03-22T04:58:12;94767.47;;;10.28;45.08
6393;BME280;3229;42.674;23.282;2024-03-22T05:00:38;94771.88;;;10.36;45.17
6393;BME280;3229;42.674;23.282;2024-03-22T05:03:05;94761.81;;;10.34;45.00
6393;BME280;3229;42.674;23.282;2024-03-22T05:05:31;94750.91;;;10.42;44.90
6393;BME280;3229;42.674;23.282;2024-03-22T05:07:57;94768.50;;;10.74;44.61
6393;BME280;3229;42.674;23.282;2024-03-22T05:10:23;94774.41;;;10.94;44.37
6393;BME280;3229;42.674;23.282;2024-03-22T05:12:50;94716.81;;;10.80;44.31
6393;BME280;3229;42.674;23.282;2024-03-22T05:15:17;94779.47;;;11.50;44.25
6393;BME280;3229;42.674;23.282;2024-03-22T05:17:44;94792.00;;;11.91;44.11
6393;BME280;3229;42.674;23.282;2024-03-22T05:20:11;94779.81;;;12.38;44.21
6393;BME280;3229;42.674;23.282;2024-03-22T05:22:38;94750.91;;;12.72;43.78
6393;BME280;3229;42.674;23.282;2024-03-22T05:25:04;94782.50;;;13.42;43.42
6393;BME280;3229;42.674;23.282;2024-03-22T05:27:31;94791.31;;;14.08;43.18
6393;BME280;3229;42.674;23.282;2024-03-22T05:29:57;94796.09;;;14.78;42.36
6393;BME280;3229;42.674;23.282;2024-03-22T05:32:26;94800.50;;;15.49;42.26
6393;BME280;3229;42.674;23.282;2024-03-22T05:34:52;94798.84;;;16.20;41.20
6393;BME280;3229;42.674;23.282;2024-03-22T05:37:19;94774.13;;;16.80;40.86
6393;BME280;3229;42.674;23.282;2024-03-22T05:39:45;94722.06;;;17.21;40.16
6393;BME280;3229;42.674;23.282;2024-03-22T05:42:12;94796.25;;;18.45;39.39
6393;BME280;3229;42.674;23.282;2024-03-22T05:44:38;94781.88;;;19.07;38.58
6393;BME280;3229;42.674;23.282;2024-03-22T05:47:05;94813.00;;;19.98;37.91
6393;BME280;3229;42.674;23.282;2024-03-22T05:49:32;94807.69;;;20.74;37.36
6393;BME280;3229;42.674;23.282;2024-03-22T05:51:59;94808.16;;;21.50;36.41
6393;BME280;3229;42.674;23.282;2024-03-22T05:54:25;94788.75;;;22.11;35.63
6393;BME280;3229;42.674;23.282;2024-03-22T05:56:52;94811.38;;;23.00;35.39
6393;BME280;3229;42.674;23.282;2024-03-22T05:59:18;94814.03;;;23.69;34.32
6393;BME280;3229;42.674;23.282;2024-03-22T06:01:44;94785.91;;;24.08;34.14
6393;BME280;3229;42.674;23.282;2024-03-22T06:04:10;94819.78;;;24.81;35.77
6393;BME280;3229;42.674;23.282;2024-03-22T06:06:38;94805.22;;;25.15;37.47
6393;BME280;3229;42.674;23.282;2024-03-22T06:09:04;94816.28;;;25.64;38.86
6393;BME280;3229;42.674;23.282;2024-03-22T06:11:34;94818.09;;;25.99;39.26
6393;BME280;3229;42.674;23.282;2024-03-22T06:14:00;94814.31;;;26.30;38.68
6393;BME280;3229;42.674;23.282;2024-03-22T06:16:27;94798.75;;;26.52;37.92
6393;BME280;3229;42.674;23.282;2024-03-22T06:18:53;94809.06;;;26.87;34.54
6393;BME280;3229;42.674;23.282;2024-03-22T06:21:19;94810.41;;;27.18;32.34
6393;BME280;3229;42.674;23.282;2024-03-22T06:23:49;94804.50;;;27.45;31.04
6393;BME280;3229;42.674;23.282;2024-03-22T06:26:16;94803.28;;;27.69;30.20
6393;BME280;3229;42.674;23.282;2024-03-22T06:28:42;94816.03;;;27.94;29.47
6393;BME280;3229;42.674;23.282;2024-03-22T06:31:09;94819.19;;;28.18;29.13
6393;BME280;3229;42.674;23.282;2024-03-22T06:33:34;94816.47;;;28.30;28.86
6393;BME280;3229;42.674;23.282;2024-03-22T06:36:02;94818.00;;;28.48;28.68
6393;BME280;3229;42.674;23.282;2024-03-22T06:38:29;94824.47;;;28.62;29.13
6393;BME280;3229;42.674;23.282;2024-03-22T06:40:57;94820.44;;;28.77;29.16
6393;BME280;3229;42.674;23.282;2024-03-22T06:43:24;94823.97;;;28.92;29.22
6393;BME280;3229;42.674;23.282;2024-03-22T06:45:51;94826.00;;;29.07;29.08
6393;BME280;3229;42.674;23.282;2024-03-22T06:48:17;94829.28;;;29.19;28.73
6393;BME280;3229;42.674;23.282;2024-03-22T06:50:44;94830.94;;;29.31;28.73
6393;BME280;3229;42.674;23.282;2024-03-22T06:53:09;94798.16;;;29.16;28.61
6393;BME280;3229;42.674;23.282;2024-03-22T06:55:36;94842.13;;;29.48;28.74
6393;BME280;3229;42.674;23.282;2024-03-22T06:58:03;94840.91;;;29.56;28.19
6393;BME280;3229;42.674;23.282;2024-03-22T07:00:30;94846.47;;;29.59;28.63
6393;BME280;3229;42.674;23.282;2024-03-22T07:02:56;94837.31;;;29.67;28.49
6393;BME280;3229;42.674;23.282;2024-03-22T07:05:23;94837.06;;;29.73;28.82
6393;BME280;3229;42.674;23.282;2024-03-22T07:07:48;94844.22;;;29.78;28.88
6393;BME280;3229;42.674;23.282;2024-03-22T07:10:16;94851.13;;;29.84;28.88
6393;BME280;3229;42.674;23.282;2024-03-22T07:12:42;94849.03;;;29.91;28.70
6393;BME280;3229;42.674;23.282;2024-03-22T07:15:10;94847.78;;;29.99;28.50
6393;BME280;3229;42.674;23.282;2024-03-22T07:17:36;94851.00;;;30.06;28.42
6393;BME280;3229;42.674;23.282;2024-03-22T07:20:03;94842.81;;;30.08;28.55
6393;BME280;3229;42.674;23.282;2024-03-22T07:22:29;94840.47;;;30.11;28.45
6393;BME280;3229;42.674;23.282;2024-03-22T07:24:56;94853.19;;;30.14;28.10
6393;BME280;3229;42.674;23.282;2024-03-22T07:27:22;94840.78;;;30.15;27.96
6393;BME280;3229;42.674;23.282;2024-03-22T07:29:48;94845.28;;;30.14;27.97
6393;BME280;3229;42.674;23.282;2024-03-22T07:32:16;94847.91;;;30.14;27.95
6393;BME280;3229;42.674;23.282;2024-03-22T07:34:45;94843.16;;;30.16;28.24
6393;BME280;3229;42.674;23.282;2024-03-22T07:37:11;94845.53;;;30.18;28.42
6393;BME280;3229;42.674;23.282;2024-03-22T07:39:38;94842.09;;;30.17;28.13
6393;BME280;3229;42.674;23.282;2024-03-22T07:42:04;94848.72;;;30.20;28.01
6393;BME280;3229;42.674;23.282;2024-03-22T07:44:31;94847.16;;;30.29;28.09
6393;BME280;3229;42.674;23.282;2024-03-22T07:46:57;94847.97;;;30.30;28.26
6393;BME280;3229;42.674;23.282;2024-03-22T07:49:25;94848.78;;;30.35;28.01
6393;BME280;3229;42.674;23.282;2024-03-22T07:51:50;94825.50;;;30.22;28.25
6393;BME280;3229;42.674;23.282;2024-03-22T07:54:18;94844.31;;;30.36;27.92
6393;BME280;3229;42.674;23.282;2024-03-22T07:56:44;94851.97;;;30.37;27.99
6393;BME280;3229;42.674;23.282;2024-03-22T07:59:10;94845.09;;;30.36;27.77
6393;BME280;3229;42.674;23.282;2024-03-22T08:01:36;94852.72;;;30.33;27.81
6393;BME280;3229;42.674;23.282;2024-03-22T08:04:04;94849.28;;;30.27;27.90
6393;BME280;3229;42.674;23.282;2024-03-22T08:06:31;94853.72;;;30.21;27.92
6393;BME280;3229;42.674;23.282;2024-03-22T08:08:58;94860.06;;;30.20;27.68
6393;BME280;3229;42.674;23.282;2024-03-22T08:11:23;94852.91;;;30.16;28.14
6393;BME280;3229;42.674;23.282;2024-03-22T08:13:50;94858.38;;;30.09;28.15
6393;BME280;3229;42.674;23.282;2024-03-22T08:16:16;94853.59;;;30.01;28.10
6393;BME280;3229;42.674;23.282;2024-03-22T08:18:43;94848.25;;;29.91;27.90
6393;BME280;3229;42.674;23.282;2024-03-22T08:21:08;94826.97;;;29.60;28.00
6393;BME280;3229;42.674;23.282;2024-03-22T08:23:36;94859.19;;;29.67;28.05
6393;BME280;3229;42.674;23.282;2024-03-22T08:26:02;94846.97;;;29.56;28.04
6393;BME280;3229;42.674;23.282;2024-03-22T08:28:29;94851.59;;;29.44;28.16
6393;BME280;3229;42.674;23.282;2024-03-22T08:30:55;94850.75;;;29.38;28.37
6393;BME280;3229;42.674;23.282;2024-03-22T08:33:21;94842.00;;;29.28;28.53
6393;BME280;3229;42.674;23.282;2024-03-22T08:35:47;94848.75;;;29.18;28.48
6393;BME280;3229;42.674;23.282;2024-03-22T08:38:14;94853.41;;;29.06;28.42
6393;BME280;3229;42.674;23.282;2024-03-22T08:40:41;94854.06;;;28.96;28.11
6393;BME280;3229;42.674;23.282;2024-03-22T08:43:08;94845.47;;;28.84;27.06
6393;BME280;3229;42.674;23.282;2024-03-22T08:45:34;94854.59;;;28.71;26.79
6393;BME280;3229;42.674;23.282;2024-03-22T08:48:01;94850.72;;;28.57;26.14
6393;BME280;3229;42.674;23.282;2024-03-22T08:50:27;94854.78;;;28.43;25.51
6393;BME280;3229;42.674;23.282;2024-03-22T08:52:54;94854.09;;;28.31;24.92
6393;BME280;3229;42.674;23.282;2024-03-22T08:55:20;94855.72;;;28.15;24.67
6393;BME280;3229;42.674;23.282;2024-03-22T08:57:48;94843.09;;;27.95;24.70
6393;BME280;3229;42.674;23.282;2024-03-22T09:00:14;94848.06;;;27.74;24.39
6393;BME280;3229;42.674;23.282;2024-03-22T09:02:41;94858.88;;;27.61;24.36
6393;BME280;3229;42.674;23.282;2024-03-22T09:05:07;94843.91;;;27.45;24.88
6393;BME280;3229;42.674;23.282;2024-03-22T09:07:34;94806.47;;;27.04;24.72
6393;BME280;3229;42.674;23.282;2024-03-22T09:10:00;94848.13;;;27.12;25.19
6393;BME280;3229;42.674;23.282;2024-03-22T09:12:27;94834.88;;;26.90;25.72
6393;BME280;3229;42.674;23.282;2024-03-22T09:14:54;94820.00;;;26.67;26.20
6393;BME280;3229;42.674;23.282;2024-03-22T09:17:21;94830.69;;;26.77;26.17
6393;BME280;3229;42.674;23.282;2024-03-22T09:19:47;94824.38;;;26.62;26.02
6393;BME280;3229;42.674;23.282;2024-03-22T09:22:15;94829.66;;;26.50;26.34
6393;BME280;3229;42.674;23.282;2024-03-22T09:24:40;94826.47;;;26.36;27.07
6393;BME280;3229;42.674;23.282;2024-03-22T09:27:07;94817.63;;;26.25;27.12
6393;BME280;3229;42.674;23.282;2024-03-22T09:29:35;94815.25;;;26.12;27.48
6393;BME280;3229;42.674;23.282;2024-03-22T09:32:04;94801.72;;;25.92;27.83
6393;BME280;3229;42.674;23.282;2024-03-22T09:34:30;94797.53;;;25.79;28.02
6393;BME280;3229;42.674;23.282;2024-03-22T09:36:56;94819.28;;;25.80;27.98
6393;BME280;3229;42.674;23.282;2024-03-22T09:39:22;94813.91;;;25.63;28.45
6393;BME280;3229;42.674;23.282;2024-03-22T09:41:50;94815.59;;;25.45;28.42
6393;BME280;3229;42.674;23.282;2024-03-22T09:44:18;94815.13;;;25.25;28.63
6393;BME280;3229;42.674;23.282;2024-03-22T09:46:47;94814.38;;;25.06;28.97
6393;BME280;3229;42.674;23.282;2024-03-22T09:49:14;94817.22;;;24.93;29.66
6393;BME280;3229;42.674;23.282;2024-03-22T09:51:43;94815.56;;;24.80;29.64
6393;BME280;3229;42.674;23.282;2024-03-22T09:54:09;94811.88;;;24.69;29.83
6393;BME280;3229;42.674;23.282;2024-03-22T09:56:38;94796.84;;;24.53;30.22
6393;BME280;3229;42.674;23.282;2024-03-22T09:59:05;94808.88;;;24.54;30.75
6393;BME280;3229;42.674;23.282;2024-03-22T10:01:32;94810.41;;;24.43;30.68
6393;BME280;3229;42.674;23.282;2024-03-22T10:03:59;94805.84;;;24.39;30.68
6393;BME280;3229;42.674;23.282;2024-03-22T10:06:29;94806.94;;;24.31;30.87
6393;BME280;3229;42.674;23.282;2024-03-22T10:08:57;94805.78;;;24.27;30.83
6393;BME280;3229;42.674;23.282;2024-03-22T10:11:26;94799.59;;;24.21;31.14
6393;BME280;3229;42.674;23.282;2024-03-22T10:13:51;94796.59;;;24.06;31.51
6393;BME280;3229;42.674;23.282;2024-03-22T10:16:20;94802.91;;;23.80;31.94
6393;BME280;3229;42.674;23.282;2024-03-22T10:18:46;94804.06;;;23.59;32.04
6393;BME280;3229;42.674;23.282;2024-03-22T10:21:17;94800.25;;;23.37;32.01
6393;BME280;3229;42.674;23.282;2024-03-22T10:23:45;94799.66;;;23.10;31.91
6393;BME280;3229;42.674;23.282;2024-03-22T10:26:14;94793.97;;;22.94;31.69
6393;BME280;3229;42.674;23.282;2024-03-22T10:28:44;94783.38;;;22.83;31.54
6393;BME280;3229;42.674;23.282;2024-03-22T10:31:11;94783.44;;;22.76;31.52
6393;BME280;3229;42.674;23.282;2024-03-22T10:33:38;94779.06;;;22.70;31.39
6393;BME280;3229;42.674;23.282;2024-03-22T10:36:07;94780.91;;;22.63;31.14
6393;BME280;3229;42.674;23.282;2024-03-22T10:38:33;94780.16;;;22.56;31.14
6393;BME280;3229;42.674;23.282;2024-03-22T10:41:04;94769.00;;;22.42;30.95
6393;BME280;3229;42.674;23.282;2024-03-22T10:43:30;94770.22;;;22.39;30.85
6393;BME280;3229;42.674;23.282;2024-03-22T10:46:00;94766.66;;;22.34;30.86
6393;BME280;3229;42.674;23.282;2024-03-22T10:48:29;94764.84;;;22.27;30.79
6393;BME280;3229;42.674;23.282;2024-03-22T10:50:59;94765.91;;;22.20;30.71
6393;BME280;3229;42.674;23.282;2024-03-22T10:53:26;94760.72;;;22.13;30.54
6393;BME280;3229;42.674;23.282;2024-03-22T10:55:54;94753.50;;;22.09;30.60
6393;BME280;3229;42.674;23.282;2024-03-22T10:58:26;94757.53;;;22.04;30.51
6393;BME280;3229;42.674;23.282;2024-03-22T11:00:54;94756.34;;;22.00;30.58
6393;BME280;3229;42.674;23.282;2024-03-22T11:03:21;94753.34;;;21.97;30.50
6393;BME280;3229;42.674;23.282;2024-03-22T11:05:50;94736.75;;;21.85;30.26
6393;BME280;3229;42.674;23.282;2024-03-22T11:08:24;94718.34;;;21.79;30.20
6393;BME280;3229;42.674;23.282;2024-03-22T11:10:51;94732.53;;;21.90;30.16
6393;BME280;3229;42.674;23.282;2024-03-22T11:13:17;94729.72;;;21.92;30.09
6393;BME280;3229;42.674;23.282;2024-03-22T11:15:47;94729.34;;;21.88;30.16
6393;BME280;3229;42.674;23.282;2024-03-22T11:18:13;94736.75;;;21.85;30.16
6393;BME280;3229;42.674;23.282;2024-03-22T11:20:41;94729.19;;;21.76;30.12
6393;BME280;3229;42.674;23.282;2024-03-22T11:23:07;94725.03;;;21.62;30.18
6393;BME280;3229;42.674;23.282;2024-03-22T11:25:35;94730.44;;;21.54;30.27
6393;BME280;3229;42.674;23.282;2024-03-22T11:28:02;94691.50;;;21.21;30.07
6393;BME280;3229;42.674;23.282;2024-03-22T11:30:29;94723.09;;;21.38;30.14
6393;BME280;3229;42.674;23.282;2024-03-22T11:32:56;94723.28;;;21.36;30.10
6393;BME280;3229;42.674;23.282;2024-03-22T11:35:23;94712.66;;;21.31;30.21
6393;BME280;3229;42.674;23.282;2024-03-22T11:37:50;94715.66;;;21.28;30.24
6393;BME280;3229;42.674;23.282;2024-03-22T11:40:17;94712.47;;;21.26;30.31
6393;BME280;3229;42.674;23.282;2024-03-22T11:42:45;94712.28;;;21.27;30.23
6393;BME280;3229;42.674;23.282;2024-03-22T11:45:14;94706.88;;;21.22;30.27
6393;BME280;3229;42.674;23.282;2024-03-22T11:47:41;94718.69;;;21.18;30.10
6393;BME280;3229;42.674;23.282;2024-03-22T11:50:10;94712.91;;;21.10;30.41
6393;BME280;3229;42.674;23.282;2024-03-22T11:52:40;94707.91;;;21.08;30.21
6393;BME280;3229;42.674;23.282;2024-03-22T11:55:07;94699.09;;;21.02;30.30
6393;BME280;3229;42.674;23.282;2024-03-22T11:57:33;94699.50;;;21.06;30.21
6393;BME280;3229;42.674;23.282;2024-03-22T12:00:00;94695.31;;;21.05;30.35
6393;BME280;3229;42.674;23.282;2024-03-22T12:02:26;94688.09;;;21.14;30.15
6393;BME280;3229;42.674;23.282;2024-03-22T12:04:53;94690.88;;;21.19;30.17
6393;BME280;3229;42.674;23.282;2024-03-22T12:07:21;94679.28;;;21.21;30.16
6393;BME280;3229;42.674;23.282;2024-03-22T12:09:47;94671.09;;;21.18;30.14
6393;BME280;3229;42.674;23.282;2024-03-22T12:12:13;94677.44;;;21.28;29.78
6393;BME280;3229;42.674;23.282;2024-03-22T12:14:40;94642.47;;;21.18;29.88
6393;BME280;3229;42.674;23.282;2024-03-22T12:17:06;94672.03;;;21.43;29.82
6393;BME280;3229;42.674;23.282;2024-03-22T12:19:34;94619.28;;;21.16;29.81
6393;BME280;3229;42.674;23.282;2024-03-22T12:22:00;94671.41;;;21.54;29.78
6393;BME280;3229;42.674;23.282;2024-03-22T12:24:28;94664.81;;;21.52;29.84
6393;BME280;3229;42.674;23.282;2024-03-22T12:26:54;94656.66;;;21.35;29.95
6393;BME280;3229;42.674;23.282;2024-03-22T12:29:21;94631.09;;;21.12;30.02
6393;BME280;3229;42.674;23.282;2024-03-22T12:31:47;94650.06;;;21.26;30.07
6393;BME280;3229;42.674;23.282;2024-03-22T12:34:14;94655.69;;;21.16;30.09
6393;BME280;3229;42.674;23.282;2024-03-22T12:36:41;94660.88;;;21.16;30.14
6393;BME280;3229;42.674;23.282;2024-03-22T12:39:08;94618.53;;;20.96;30.01
6393;BME280;3229;42.674;23.282;2024-03-22T12:41:35;94647.09;;;21.16;29.97
6393;BME280;3229;42.674;23.282;2024-03-22T12:44:02;94641.09;;;21.09;29.83
6393;BME280;3229;42.674;23.282;2024-03-22T12:46:28;94652.69;;;21.13;29.78
6393;BME280;3229;42.674;23.282;2024-03-22T12:48:55;94642.28;;;21.06;29.99
6393;BME280;3229;42.674;23.282;2024-03-22T12:51:21;94640.13;;;21.03;30.00
6393;BME280;3229;42.674;23.282;2024-03-22T12:53:49;94648.31;;;21.00;30.10
6393;BME280;3229;42.674;23.282;2024-03-22T12:56:15;94645.94;;;20.92;29.94
6393;BME280;3229;42.674;23.282;2024-03-22T12:58:43;94644.53;;;20.83;30.14
6393;BME280;3229;42.674;23.282;2024-03-22T13:01:09;94637.94;;;20.80;30.11
6393;BME280;3229;42.674;23.282;2024-03-22T13:03:36;94632.75;;;20.73;29.99
6393;BME280;3229;42.674;23.282;2024-03-22T13:06:03;94639.56;;;20.74;30.12
6393;BME280;3229;42.674;23.282;2024-03-22T13:08:30;94638.56;;;20.69;30.14
6393;BME280;3229;42.674;23.282;2024-03-22T13:10:56;94629.16;;;20.61;30.11